• Join FlightAware (Why Join?)
  • Login
  • US Flag GB Flag 
16:55 EST


 

Airport Tracker/Info


-or-


 

Live Flight TrackerFlight Track Log ✈ FSR411 ✈ 17-Dec-2013 ✈ KCMI - KGKY

Flight Track Log - Related Links

Times and Time Zones

All times are in EST time to prevent confusion due to time zone crossing. See the FSR411 flight status page for this flight to view local times or setup timezone preferences in your user account.

Time Position Orientation Groundspeed Altitude Reporting Facility
EST Latitude Longitude Course Direction KTS MPH feet Rate Location/Type
13:06 40.0208 -88.3594 222° Southwest 228 262 4,200  Level Kansas City Center
13:07 39.9714 -88.4203 223° Southwest 243 280 7,600 3,360 Climbing Kansas City Center
13:08 39.9261 -88.4878 229° Southwest 244 281 11,300 3,720 Climbing Kansas City Center
13:09 39.8628 -88.5767 227° Southwest 262 302 15,400 3,660 Climbing Kansas City Center
13:10 39.7967 -88.6678 227° Southwest 328 377 18,900 3,480 Climbing Kansas City Center
13:12 39.5103 -88.9995 222° Southwest  Level Estimated
13:12 39.7292 -88.7628 227° Southwest 350 403 22,700  Level Kansas City Center
13:13 39.6614 -88.8572 227° Southwest 355 409 26,000 2,700 Climbing Kansas City Center
13:14 39.5939 -88.9508 227° Southwest 356 410 28,300 1,560 Climbing Kansas City Center
13:15 39.5189 -89.0553 227° Southwest 382 440 29,300 1,140 Climbing Kansas City Center
13:16 39.4381 -89.1647 226° Southwest 410 472 30,700 1,380 Climbing Kansas City Center
13:17 39.3539 -89.2814 227° Southwest 424 488 32,200 1,680 Climbing Kansas City Center
13:18 39.2553 -89.4156 227° Southwest 428 493 34,300 1,860 Climbing Kansas City Center
13:19 39.1767 -89.5214 226° Southwest 417 480 36,100 1,500 Climbing Kansas City Center
13:20 39.1006 -89.6247 227° Southwest 402 463 37,500 1,260 Climbing Kansas City Center
13:21 39.0239 -89.7286 226° Southwest 400 460 38,800 960 Climbing Kansas City Center
13:22 38.9486 -89.8303 226° Southwest 394 453 39,600 540 Climbing Kansas City Center
13:23 38.8706 -89.9331 226° Southwest 399 459 40,000 180 Climbing Kansas City Center
13:24 38.7778 -90.0586 227° Southwest 410 472 40,000  Level Kansas City Center
13:25 38.6942 -90.1667 225° Southwest 420 483 40,000  Level Kansas City Center
13:26 38.6089 -90.2772 225° Southwest 430 495 40,000  Level Kansas City Center
13:27 38.5269 -90.3889 227° Southwest 428 493 40,000  Level Kansas City Center
13:29 38.3953 -90.5597 226° Southwest 423 487 40,000  Level Memphis Center
13:30 38.3164 -90.6650 226° Southwest 414 476 40,000  Level Memphis Center
13:31 38.2369 -90.7664 225° Southwest 406 467 40,000  Level Memphis Center
13:31 38.1992 -90.8139 225° Southwest 402 463 40,000  Level Kansas City Center
13:32 38.1222 -90.9153 226° Southwest 399 459 40,000  Level Kansas City Center
13:33 38.0258 -91.0394 225° Southwest 409 471 40,000  Level Kansas City Center
13:34 37.9469 -91.1403 225° Southwest 418 481 40,000  Level Kansas City Center
13:35 37.8628 -91.2494 226° Southwest 426 490 40,000  Level Kansas City Center
13:36 37.7772 -91.3583 225° Southwest 431 496 40,000  Level Kansas City Center
13:37 37.6731 -91.4933 226° Southwest 439 505 40,000  Level Kansas City Center
13:38 37.5833 -91.6050 225° Southwest 445 512 40,000  Level Kansas City Center
13:39 37.4967 -91.7169 226° Southwest 445 512 40,000  Level Kansas City Center
13:40 37.4083 -91.8278 225° Southwest 444 511 40,000 300 Level Kansas City Center
13:41 37.3194 -91.9406 225° Southwest 446 513 40,700 780 Climbing Kansas City Center
13:43 37.2322 -92.0508 225° Southwest 443 510 41,700 960 Climbing Kansas City Center
13:44 37.1472 -92.1572 225° Southwest 433 498 42,700 600 Climbing Kansas City Center
13:45 37.0661 -92.2600 225° Southwest 419 482 43,000 120 Climbing Kansas City Center
13:46 36.9858 -92.3569 224° Southwest 406 467 43,000  Level Kansas City Center
13:47 36.8908 -92.4744 225° Southwest 399 459 43,000  Level Kansas City Center
13:48 36.8119 -92.5728 225° Southwest 398 458 43,000  Level Kansas City Center
13:49 36.7328 -92.6703 225° Southwest 397 457 43,000  Level Kansas City Center
13:50 36.6519 -92.7675 224° Southwest 399 459 43,000  Level Kansas City Center
13:50 36.6033 -92.8239 223° Southwest 400 460 43,000  Level Memphis Center
13:51 36.5231 -92.9236 225° Southwest 402 463 43,000  Level Memphis Center
13:52 36.4425 -93.0194 224° Southwest 404 465 43,000  Level Memphis Center
13:53 36.4111 -93.0550 222° Southwest 404 465 43,000  Level Kansas City Center
13:53 36.3603 -93.1178 225° Southwest 409 471 43,000  Level Memphis Center
13:54 36.2794 -93.2164 225° Southwest 411 473 43,000  Level Memphis Center
13:55 36.1811 -93.3342 224° Southwest 412 474 43,000  Level Memphis Center
13:56 36.0989 -93.4325 224° Southwest 412 474 43,000  Level Memphis Center
13:58 36.0150 -93.5328 224° Southwest 417 480 43,000  Level Memphis Center
13:59 35.9303 -93.6333 224° Southwest 423 487 43,000  Level Memphis Center
14:00 35.8278 -93.7550 224° Southwest 426 490 43,000  Level Memphis Center
14:01 35.7422 -93.8569 224° Southwest 430 495 43,000  Level Memphis Center
14:02 35.6556 -93.9589 224° Southwest 432 497 43,000  Level Memphis Center
14:03 35.5667 -94.0622 223° Southwest 437 503 43,000  Level Memphis Center
14:04 35.4797 -94.1639 224° Southwest 435 501 43,000  Level Memphis Center
14:05 35.3931 -94.2650 224° Southwest 433 498 43,000  Level Memphis Center
14:06 35.2844 -94.3842 222° Southwest 437 503 43,000  Level Memphis Center
14:07 35.1931 -94.4831 221° Southwest 438 504 43,000  Level Memphis Center
14:08 35.1075 -94.5889 225° Southwest 438 504 43,000  Level Fort Worth Center
14:09 35.0250 -94.6919 226° Southwest 429 494 43,000  Level Fort Worth Center
14:10 34.9419 -94.7956 226° Southwest 427 491 43,000  Level Fort Worth Center
14:11 34.8581 -94.8992 225° Southwest 426 490 43,000 -540 Level Fort Worth Center
14:12 34.7742 -95.0019 225° Southwest 427 491 41,900 -1,440 Descending Fort Worth Center
14:13 34.6914 -95.1050 226° Southwest 427 491 40,100 -2,040 Descending Fort Worth Center
14:14 34.5958 -95.2219 225° Southwest 411 473 37,700 -2,040 Descending Fort Worth Center
14:15 34.5214 -95.3125 225° Southwest 421 484 35,900 -1,980 Descending Fort Worth Center
14:16 34.4292 -95.4247 225° Southwest 463 533 33,700 -2,520 Descending Fort Worth Center
14:17 34.3186 -95.5586 225° Southwest 468 539 30,800 -2,580 Descending Fort Worth Center
14:18 34.2269 -95.6686 225° Southwest 464 534 28,400 -2,340 Descending Fort Worth Center
14:19 34.1358 -95.7789 225° Southwest 464 534 26,000 -2,220 Descending Fort Worth Center
14:20 34.0489 -95.8825 225° Southwest 463 533 23,800 -2,460 Descending Fort Worth Center
14:21 33.9422 -96.0100 225° Southwest 453 521 20,900 -2,520 Descending Fort Worth Center
14:22 33.8606 -96.1100 225° Southwest 423 487 18,600 -2,040 Descending Fort Worth Center
14:23 33.7831 -96.2011 224° Southwest 385 443 16,700 -1,920 Descending Fort Worth Center
14:24 33.7042 -96.2964 225° Southwest 373 429 14,700 -1,800 Descending Fort Worth Center
14:25 33.6333 -96.3789 224° Southwest 358 412 13,000 -1,560 Descending Fort Worth Center
14:26 33.5603 -96.4661 225° Southwest 347 399 11,500 -1,020 Descending Fort Worth Center
14:27 33.4972 -96.5406 225° Southwest 320 368 11,000 -300 Descending Fort Worth Center
14:29 33.4344 -96.6139 224° Southwest 296 341 11,000 -240 Level Fort Worth Center
14:30 33.3756 -96.6783 222° Southwest 290 334 10,600 -840 Descending Fort Worth Center
14:31 33.3644 -96.7772 262° West 278 320 9,300 -1,260 Descending Fort Worth Center
14:32 33.3536 -96.8714 262° West 284 327 8,000 -1,500 Descending Fort Worth Center
14:33 33.3439 -96.9731 263° West 286 329 6,200 -1,800 Descending Fort Worth Center
14:34 33.3372 -97.0642 265° West 278 320 4,400 -1,560 Descending Fort Worth Center
14:35 33.3333 -97.1500 267° West 249 287 3,200 -780 Descending Dallas / Fort Worth TRACON
14:36 33.3000 -97.2000 231° Southwest 221 254 3,000 -120 Descending Dallas / Fort Worth TRACON
14:37 33.2500 -97.2333 209° Southwest 234 269 3,000  Level Dallas / Fort Worth TRACON
14:38 33.1667 -97.2500 190° South 244 281 3,000  Level Dallas / Fort Worth TRACON
14:39 33.1167 -97.2500 180° South 244 281 3,000  Level Dallas / Fort Worth TRACON
14:40 33.0333 -97.2500 180° South 241 277 3,000  Level Dallas / Fort Worth TRACON
14:41 32.9667 -97.2167 157° South 241 277 3,000  Level Dallas / Fort Worth TRACON
14:42 32.9167 -97.2000 164° South 237 273 3,000 -360 Level Dallas / Fort Worth TRACON
14:43 32.8500 -97.1667 157° South 226 260 2,300 -540 Descending Dallas / Fort Worth TRACON
14:44 32.8000 -97.1500 164° South 174 200 2,000 -240 Descending Dallas / Fort Worth TRACON
14:45 32.7667 -97.1333 157° South 151 174 1,900 -360 Descending Dallas / Fort Worth TRACON
14:46 32.7167 -97.1167 164° South 151 174 1,400 -480 Descending Dallas / Fort Worth TRACON
14:47 32.6833 -97.1000 157° South 134 154 1,000 -420 Descending Dallas / Fort Worth TRACON